sensor_id;sensor_type;location;lat;lon;timestamp;pressure;altitude;pressure_sealevel;temperature;humidity
78073;BME280;67281;48.770;11.440;2023-05-19T00:01:18;97774.81;;;19.33;44.17
78073;BME280;67281;48.770;11.440;2023-05-19T00:03:50;97775.66;;;19.34;43.52
78073;BME280;67281;48.770;11.440;2023-05-19T00:06:26;97776.66;;;19.33;43.83
78073;BME280;67281;48.770;11.440;2023-05-19T00:08:57;97767.00;;;19.32;43.64
78073;BME280;67281;48.770;11.440;2023-05-19T00:11:25;97763.69;;;19.30;44.17
78073;BME280;67281;48.770;11.440;2023-05-19T00:13:54;97759.38;;;19.29;43.40
78073;BME280;67281;48.770;11.440;2023-05-19T00:16:23;97763.69;;;19.30;44.29
78073;BME280;67281;48.770;11.440;2023-05-19T00:18:50;97761.19;;;19.28;44.20
78073;BME280;67281;48.770;11.440;2023-05-19T00:21:19;97763.84;;;19.28;43.93
78073;BME280;67281;48.770;11.440;2023-05-19T00:23:46;97750.69;;;19.27;43.85
78073;BME280;67281;48.770;11.440;2023-05-19T00:26:13;97754.34;;;19.26;43.83
78073;BME280;67281;48.770;11.440;2023-05-19T00:28:41;97743.88;;;19.24;43.94
78073;BME280;67281;48.770;11.440;2023-05-19T00:31:07;97750.69;;;19.27;43.57
78073;BME280;67281;48.770;11.440;2023-05-19T00:33:34;97754.34;;;19.26;44.13
78073;BME280;67281;48.770;11.440;2023-05-19T00:36:02;97758.00;;;19.25;43.79
78073;BME280;67281;48.770;11.440;2023-05-19T00:38:30;97752.81;;;19.23;43.89
78073;BME280;67281;48.770;11.440;2023-05-19T00:40:58;97756.47;;;19.22;44.24
78073;BME280;67281;48.770;11.440;2023-05-19T00:43:25;97750.31;;;19.22;43.62
78073;BME280;67281;48.770;11.440;2023-05-19T00:45:52;97744.16;;;19.21;43.86
78073;BME280;67281;48.770;11.440;2023-05-19T00:48:19;97741.50;;;19.21;44.05
78073;BME280;67281;48.770;11.440;2023-05-19T00:50:47;97746.97;;;19.20;43.52
78073;BME280;67281;48.770;11.440;2023-05-19T00:53:16;97741.94;;;19.17;43.90
78073;BME280;67281;48.770;11.440;2023-05-19T00:55:44;97741.94;;;19.17;43.81
78073;BME280;67281;48.770;11.440;2023-05-19T00:58:12;97741.94;;;19.17;43.62
78073;BME280;67281;48.770;11.440;2023-05-19T01:00:40;97733.97;;;19.17;44.18
78073;BME280;67281;48.770;11.440;2023-05-19T01:03:08;97737.47;;;19.17;44.19
78073;BME280;67281;48.770;11.440;2023-05-19T01:05:40;97727.97;;;19.15;43.73
78073;BME280;67281;48.770;11.440;2023-05-19T01:08:19;97725.31;;;19.15;43.69
78073;BME280;67281;48.770;11.440;2023-05-19T01:10:46;97726.16;;;19.15;43.56
78073;BME280;67281;48.770;11.440;2023-05-19T01:13:13;97724.34;;;19.16;43.87
78073;BME280;67281;48.770;11.440;2023-05-19T01:16:39;97725.31;;;19.15;43.55
78073;BME280;67281;48.770;11.440;2023-05-19T01:25:15;97721.97;;;19.13;44.16
78073;BME280;67281;48.770;11.440;2023-05-19T01:30:26;97729.25;;;19.11;43.89
78073;BME280;67281;48.770;11.440;2023-05-19T01:32:58;97727.44;;;19.11;43.50
78073;BME280;67281;48.770;11.440;2023-05-19T01:35:26;97717.94;;;19.09;43.64
78073;BME280;67281;48.770;11.440;2023-05-19T01:37:56;97717.94;;;19.09;44.07
78073;BME280;67281;48.770;11.440;2023-05-19T01:40:25;97721.59;;;19.08;43.55
78073;BME280;67281;48.770;11.440;2023-05-19T01:42:55;97720.75;;;19.07;44.21
78073;BME280;67281;48.770;11.440;2023-05-19T01:45:24;97718.94;;;19.08;43.62
78073;BME280;67281;48.770;11.440;2023-05-19T01:47:56;97721.75;;;19.06;44.02
78073;BME280;67281;48.770;11.440;2023-05-19T01:50:24;97717.41;;;19.05;43.59
78073;BME280;67281;48.770;11.440;2023-05-19T01:52:51;97715.75;;;19.04;43.62
78073;BME280;67281;48.770;11.440;2023-05-19T01:55:18;97716.56;;;19.04;44.18
78073;BME280;67281;48.770;11.440;2023-05-19T01:57:58;97719.38;;;19.03;44.11
78073;BME280;67281;48.770;11.440;2023-05-19T02:00:32;97707.91;;;19.02;44.27
78073;BME280;67281;48.770;11.440;2023-05-19T02:09:04;97714.38;;;19.00;43.93
78073;BME280;67281;48.770;11.440;2023-05-19T02:11:36;97709.88;;;19.00;43.74
78073;BME280;67281;48.770;11.440;2023-05-19T02:14:12;97712.69;;;18.99;43.98
78073;BME280;67281;48.770;11.440;2023-05-19T02:16:44;97719.81;;;18.98;44.19
78073;BME280;67281;48.770;11.440;2023-05-19T02:19:19;97714.66;;;18.97;43.72
78073;BME280;67281;48.770;11.440;2023-05-19T02:21:47;97707.53;;;18.97;43.86
78073;BME280;67281;48.770;11.440;2023-05-19T02:24:13;97712.84;;;18.97;43.97
78073;BME280;67281;48.770;11.440;2023-05-19T02:26:42;97713.00;;;18.96;44.20
78073;BME280;67281;48.770;11.440;2023-05-19T02:29:09;97721.94;;;18.95;44.31
78073;BME280;67281;48.770;11.440;2023-05-19T02:31:36;97714.94;;;18.94;44.28
78073;BME280;67281;48.770;11.440;2023-05-19T02:34:03;97717.75;;;18.92;43.54
78073;BME280;67281;48.770;11.440;2023-05-19T02:36:33;97718.59;;;18.93;44.23
78073;BME280;67281;48.770;11.440;2023-05-19T02:39:02;97708.94;;;18.92;44.04
78073;BME280;67281;48.770;11.440;2023-05-19T02:41:29;97711.59;;;18.92;43.97
78073;BME280;67281;48.770;11.440;2023-05-19T02:43:57;97710.78;;;18.91;44.22
78073;BME280;67281;48.770;11.440;2023-05-19T02:46:24;97709.09;;;18.90;43.43
78073;BME280;67281;48.770;11.440;2023-05-19T02:48:51;97711.59;;;18.92;43.95
78073;BME280;67281;48.770;11.440;2023-05-19T02:51:18;97701.28;;;18.89;44.39
78073;BME280;67281;48.770;11.440;2023-05-19T02:53:45;97702.94;;;18.90;43.64
78073;BME280;67281;48.770;11.440;2023-05-19T02:56:12;97691.78;;;18.86;44.00
78073;BME280;67281;48.770;11.440;2023-05-19T02:58:39;97698.78;;;18.87;43.96
78073;BME280;67281;48.770;11.440;2023-05-19T03:01:08;97697.09;;;18.86;44.10
78073;BME280;67281;48.770;11.440;2023-05-19T03:03:35;97693.75;;;18.84;43.98
78073;BME280;67281;48.770;11.440;2023-05-19T03:06:03;97684.97;;;18.84;44.08
78073;BME280;67281;48.770;11.440;2023-05-19T03:08:30;97693.75;;;18.84;43.58
78073;BME280;67281;48.770;11.440;2023-05-19T03:10:57;97684.13;;;18.83;43.91
78073;BME280;67281;48.770;11.440;2023-05-19T03:13:24;97683.44;;;18.81;43.75
78073;BME280;67281;48.770;11.440;2023-05-19T03:15:51;97687.91;;;18.81;43.77
78073;BME280;67281;48.770;11.440;2023-05-19T03:18:18;97686.09;;;18.81;43.91
78073;BME280;67281;48.770;11.440;2023-05-19T03:20:45;97687.06;;;18.80;43.79
78073;BME280;67281;48.770;11.440;2023-05-19T03:23:12;97680.94;;;18.80;44.02
78073;BME280;67281;48.770;11.440;2023-05-19T03:25:39;97686.38;;;18.78;44.25
78073;BME280;67281;48.770;11.440;2023-05-19T03:28:06;97696.03;;;18.79;43.68
78073;BME280;67281;48.770;11.440;2023-05-19T03:30:33;97683.72;;;18.78;43.97
78073;BME280;67281;48.770;11.440;2023-05-19T03:33:00;97688.06;;;18.79;43.97
78073;BME280;67281;48.770;11.440;2023-05-19T03:35:27;97698.81;;;18.78;43.83
78073;BME280;67281;48.770;11.440;2023-05-19T03:37:54;97689.03;;;18.78;43.95
78073;BME280;67281;48.770;11.440;2023-05-19T03:40:21;97686.53;;;18.77;43.96
78073;BME280;67281;48.770;11.440;2023-05-19T03:42:48;97701.47;;;18.78;44.02
78073;BME280;67281;48.770;11.440;2023-05-19T03:45:15;97704.13;;;18.78;43.96
78073;BME280;67281;48.770;11.440;2023-05-19T03:47:42;97706.94;;;18.76;44.25
78073;BME280;67281;48.770;11.440;2023-05-19T03:50:09;97697.44;;;18.74;43.73
78073;BME280;67281;48.770;11.440;2023-05-19T03:52:36;97691.84;;;18.77;44.16
78073;BME280;67281;48.770;11.440;2023-05-19T03:55:04;97692.00;;;18.75;44.34
78073;BME280;67281;48.770;11.440;2023-05-19T03:57:32;97698.28;;;18.74;43.61
78073;BME280;67281;48.770;11.440;2023-05-19T03:59:59;97701.91;;;18.73;44.22
78073;BME280;67281;48.770;11.440;2023-05-19T04:02:26;97697.59;;;18.72;43.96
78073;BME280;67281;48.770;11.440;2023-05-19T04:04:53;97698.56;;;18.71;43.96
78073;BME280;67281;48.770;11.440;2023-05-19T04:07:20;97701.38;;;18.69;44.01
78073;BME280;67281;48.770;11.440;2023-05-19T04:09:48;97699.41;;;18.71;43.94
78073;BME280;67281;48.770;11.440;2023-05-19T04:12:15;97699.69;;;18.68;44.34
78073;BME280;67281;48.770;11.440;2023-05-19T04:14:42;97690.06;;;18.67;43.89
78073;BME280;67281;48.770;11.440;2023-05-19T04:17:09;97689.09;;;18.68;44.25
78073;BME280;67281;48.770;11.440;2023-05-19T04:19:39;97689.91;;;18.69;43.54
78073;BME280;67281;48.770;11.440;2023-05-19T04:22:08;97688.94;;;18.70;43.49
78073;BME280;67281;48.770;11.440;2023-05-19T04:24:34;97698.88;;;18.68;43.97
78073;BME280;67281;48.770;11.440;2023-05-19T04:27:01;97692.72;;;18.67;44.16
78073;BME280;67281;48.770;11.440;2023-05-19T04:29:31;97700.69;;;18.67;43.65
78073;BME280;67281;48.770;11.440;2023-05-19T04:31:59;97700.69;;;18.67;44.16
78073;BME280;67281;48.770;11.440;2023-05-19T04:34:26;97690.06;;;18.67;43.95
78073;BME280;67281;48.770;11.440;2023-05-19T04:36:55;97696.22;;;18.68;43.92
78073;BME280;67281;48.770;11.440;2023-05-19T04:39:25;97702.50;;;18.67;43.44
78073;BME280;67281;48.770;11.440;2023-05-19T04:41:52;97692.88;;;18.66;44.03
78073;BME280;67281;48.770;11.440;2023-05-19T04:44:20;97699.84;;;18.67;43.97
78073;BME280;67281;48.770;11.440;2023-05-19T04:46:48;97697.19;;;18.67;44.12
78073;BME280;67281;48.770;11.440;2023-05-19T04:49:24;97699.16;;;18.65;44.07
78073;BME280;67281;48.770;11.440;2023-05-19T04:51:58;97700.16;;;18.64;43.79
78073;BME280;67281;48.770;11.440;2023-05-19T04:54:28;97700.16;;;18.64;43.78
78073;BME280;67281;48.770;11.440;2023-05-19T04:56:55;97702.78;;;18.64;43.96
78073;BME280;67281;48.770;11.440;2023-05-19T04:59:22;97689.53;;;18.64;44.15
78073;BME280;67281;48.770;11.440;2023-05-19T05:01:49;97694.84;;;18.64;43.85
78073;BME280;67281;48.770;11.440;2023-05-19T05:04:18;97689.53;;;18.64;43.77
78073;BME280;67281;48.770;11.440;2023-05-19T05:06:45;97681.56;;;18.64;43.78
78073;BME280;67281;48.770;11.440;2023-05-19T05:09:15;97679.75;;;18.64;43.98
78073;BME280;67281;48.770;11.440;2023-05-19T05:11:44;97678.91;;;18.64;43.49
78073;BME280;67281;48.770;11.440;2023-05-19T05:14:20;97681.56;;;18.64;43.83
78073;BME280;67281;48.770;11.440;2023-05-19T05:16:48;97678.22;;;18.62;43.47
78073;BME280;67281;48.770;11.440;2023-05-19T05:19:15;97671.22;;;18.61;43.88
78073;BME280;67281;48.770;11.440;2023-05-19T05:21:43;97677.22;;;18.63;43.33
78073;BME280;67281;48.770;11.440;2023-05-19T05:24:11;97669.28;;;18.63;43.40
78073;BME280;67281;48.770;11.440;2023-05-19T05:26:41;97678.91;;;18.64;43.69
78073;BME280;67281;48.770;11.440;2023-05-19T05:29:13;97671.22;;;18.61;43.75
78073;BME280;67281;48.770;11.440;2023-05-19T05:31:40;97678.06;;;18.63;43.67
78073;BME280;67281;48.770;11.440;2023-05-19T05:34:07;97671.94;;;18.63;43.62
78073;BME280;67281;48.770;11.440;2023-05-19T05:36:33;97663.97;;;18.63;43.93
78073;BME280;67281;48.770;11.440;2023-05-19T05:39:01;97673.44;;;18.65;43.59
78073;BME280;67281;48.770;11.440;2023-05-19T05:41:28;97673.59;;;18.64;43.42
78073;BME280;67281;48.770;11.440;2023-05-19T05:44:01;97683.38;;;18.63;43.64
78073;BME280;67281;48.770;11.440;2023-05-19T05:46:31;97681.56;;;18.64;43.81
78073;BME280;67281;48.770;11.440;2023-05-19T05:48:58;97677.78;;;18.66;43.58
78073;BME280;67281;48.770;11.440;2023-05-19T05:51:25;97681.41;;;18.65;43.26
78073;BME280;67281;48.770;11.440;2023-05-19T05:53:53;97687.72;;;18.64;43.33
78073;BME280;67281;48.770;11.440;2023-05-19T05:56:21;97687.72;;;18.64;43.96
78073;BME280;67281;48.770;11.440;2023-05-19T05:58:51;97686.56;;;18.67;43.54
78073;BME280;67281;48.770;11.440;2023-05-19T06:01:19;97690.22;;;18.66;43.61
78073;BME280;67281;48.770;11.440;2023-05-19T06:03:46;97689.38;;;18.65;43.52
78073;BME280;67281;48.770;11.440;2023-05-19T06:06:17;97688.41;;;18.66;43.90
78073;BME280;67281;48.770;11.440;2023-05-19T06:08:46;97690.22;;;18.66;43.61
78073;BME280;67281;48.770;11.440;2023-05-19T06:11:24;97687.41;;;18.67;43.78
78073;BME280;67281;48.770;11.440;2023-05-19T06:13:51;97673.16;;;18.68;43.65
78073;BME280;67281;48.770;11.440;2023-05-19T06:16:18;97671.19;;;18.70;43.16
78073;BME280;67281;48.770;11.440;2023-05-19T06:18:46;97665.03;;;18.70;43.55
78073;BME280;67281;48.770;11.440;2023-05-19T06:21:14;97671.19;;;18.70;43.12
78073;BME280;67281;48.770;11.440;2023-05-19T06:23:43;97666.72;;;18.71;43.15
78073;BME280;67281;48.770;11.440;2023-05-19T06:26:10;97673.84;;;18.70;43.39
78073;BME280;67281;48.770;11.440;2023-05-19T06:28:37;97666.72;;;18.71;43.07
78073;BME280;67281;48.770;11.440;2023-05-19T06:31:04;97670.22;;;18.71;43.37
78073;BME280;67281;48.770;11.440;2023-05-19T06:33:32;97670.91;;;18.74;43.21
78073;BME280;67281;48.770;11.440;2023-05-19T06:36:01;97677.88;;;18.75;43.35
78073;BME280;67281;48.770;11.440;2023-05-19T06:38:27;97677.72;;;18.76;43.34
78073;BME280;67281;48.770;11.440;2023-05-19T06:40:54;97681.22;;;18.77;43.53
78073;BME280;67281;48.770;11.440;2023-05-19T06:43:21;97685.41;;;18.79;42.97
78073;BME280;67281;48.770;11.440;2023-05-19T06:45:49;97687.22;;;18.79;43.30
78073;BME280;67281;48.770;11.440;2023-05-19T06:48:20;97677.00;;;18.84;43.53
78073;BME280;67281;48.770;11.440;2023-05-19T06:50:50;97675.47;;;18.81;42.53
78073;BME280;67281;48.770;11.440;2023-05-19T06:53:18;97681.31;;;18.85;43.45
78073;BME280;67281;48.770;11.440;2023-05-19T06:55:45;97686.63;;;18.85;43.49
78073;BME280;67281;48.770;11.440;2023-05-19T06:58:25;97688.16;;;18.87;42.79
78073;BME280;67281;48.770;11.440;2023-05-19T07:00:53;97687.16;;;18.88;43.35
78073;BME280;67281;48.770;11.440;2023-05-19T07:03:20;97692.34;;;18.90;42.77
78073;BME280;67281;48.770;11.440;2023-05-19T07:05:52;97691.50;;;18.89;43.01
78073;BME280;67281;48.770;11.440;2023-05-19T07:08:33;97690.81;;;18.87;43.12
78073;BME280;67281;48.770;11.440;2023-05-19T07:11:09;97688.00;;;18.89;43.26
78073;BME280;67281;48.770;11.440;2023-05-19T07:13:43;97685.19;;;18.90;42.49
78073;BME280;67281;48.770;11.440;2023-05-19T07:16:10;97687.03;;;18.90;43.10
78073;BME280;67281;48.770;11.440;2023-05-19T07:18:37;97694.84;;;18.91;43.13
78073;BME280;67281;48.770;11.440;2023-05-19T07:21:05;97692.88;;;18.93;42.96
78073;BME280;67281;48.770;11.440;2023-05-19T07:23:39;97682.94;;;18.95;43.09
78073;BME280;67281;48.770;11.440;2023-05-19T07:26:09;97687.25;;;18.96;42.72
78073;BME280;67281;48.770;11.440;2023-05-19T07:28:36;97686.13;;;18.99;42.90
78073;BME280;67281;48.770;11.440;2023-05-19T07:31:06;97676.19;;;19.01;42.85
78073;BME280;67281;48.770;11.440;2023-05-19T07:33:34;97681.34;;;19.02;42.51
78073;BME280;67281;48.770;11.440;2023-05-19T07:36:04;97675.06;;;19.03;43.03
78073;BME280;67281;48.770;11.440;2023-05-19T07:38:35;97678.56;;;19.04;42.36
78073;BME280;67281;48.770;11.440;2023-05-19T07:41:03;97668.91;;;19.03;42.46
78073;BME280;67281;48.770;11.440;2023-05-19T07:43:30;97671.41;;;19.04;42.72
78073;BME280;67281;48.770;11.440;2023-05-19T07:45:58;97664.28;;;19.05;42.99
78073;BME280;67281;48.770;11.440;2023-05-19T07:48:31;97674.06;;;19.04;42.64
78073;BME280;67281;48.770;11.440;2023-05-19T07:50:58;97665.94;;;19.06;42.80
78073;BME280;67281;48.770;11.440;2023-05-19T07:53:26;97663.28;;;19.06;42.88
78073;BME280;67281;48.770;11.440;2023-05-19T07:56:03;97667.78;;;19.06;43.16
78073;BME280;67281;48.770;11.440;2023-05-19T07:58:32;97663.44;;;19.04;42.57
78073;BME280;67281;48.770;11.440;2023-05-19T08:00:59;97665.13;;;19.06;42.83
78073;BME280;67281;48.770;11.440;2023-05-19T08:03:26;97671.41;;;19.04;42.90
78073;BME280;67281;48.770;11.440;2023-05-19T08:06:01;97668.75;;;19.04;42.55
78073;BME280;67281;48.770;11.440;2023-05-19T08:08:37;97671.41;;;19.04;42.73
78073;BME280;67281;48.770;11.440;2023-05-19T08:11:40;97674.53;;;19.00;43.07
78073;BME280;67281;48.770;11.440;2023-05-19T08:14:10;97671.72;;;19.01;42.97
78073;BME280;67281;48.770;11.440;2023-05-19T08:16:38;97675.34;;;19.00;42.90
78073;BME280;67281;48.770;11.440;2023-05-19T08:19:14;97675.34;;;19.00;43.31
78073;BME280;67281;48.770;11.440;2023-05-19T08:21:41;97674.38;;;19.01;42.70
78073;BME280;67281;48.770;11.440;2023-05-19T08:24:08;97674.38;;;19.01;42.87
78073;BME280;67281;48.770;11.440;2023-05-19T08:26:35;97681.22;;;19.04;42.94
78073;BME280;67281;48.770;11.440;2023-05-19T08:29:03;97675.06;;;19.03;43.05
78073;BME280;67281;48.770;11.440;2023-05-19T08:31:30;97679.69;;;19.01;42.69
78073;BME280;67281;48.770;11.440;2023-05-19T08:33:57;97677.19;;;19.00;43.29
78073;BME280;67281;48.770;11.440;2023-05-19T08:36:26;97671.03;;;18.99;42.75
78073;BME280;67281;48.770;11.440;2023-05-19T08:38:54;97670.50;;;18.96;43.34
78073;BME280;67281;48.770;11.440;2023-05-19T08:41:21;97671.31;;;18.96;43.16
78073;BME280;67281;48.770;11.440;2023-05-19T08:43:50;97665.72;;;18.99;42.77
78073;BME280;67281;48.770;11.440;2023-05-19T08:46:20;97668.06;;;19.02;42.79
78073;BME280;67281;48.770;11.440;2023-05-19T08:48:53;97657.44;;;19.02;42.71
78073;BME280;67281;48.770;11.440;2023-05-19T08:54:24;97651.16;;;19.03;42.74
78073;BME280;67281;48.770;11.440;2023-05-19T08:56:55;97654.50;;;19.06;42.67
78073;BME280;67281;48.770;11.440;2023-05-19T08:59:42;97659.50;;;19.09;42.51
78073;BME280;67281;48.770;11.440;2023-05-19T09:02:15;97655.88;;;19.10;43.08
78073;BME280;67281;48.770;11.440;2023-05-19T09:04:42;97644.09;;;19.12;42.84
78073;BME280;67281;48.770;11.440;2023-05-19T09:07:13;97652.06;;;19.12;42.79
78073;BME280;67281;48.770;11.440;2023-05-19T09:09:41;97651.25;;;19.12;42.59
78073;BME280;67281;48.770;11.440;2023-05-19T09:12:12;97650.41;;;19.11;43.25
78073;BME280;67281;48.770;11.440;2023-05-19T09:14:41;97646.91;;;19.11;42.91
78073;BME280;67281;48.770;11.440;2023-05-19T09:17:08;97637.41;;;19.08;43.00
78073;BME280;67281;48.770;11.440;2023-05-19T09:19:41;97650.16;;;19.04;43.12
78073;BME280;67281;48.770;11.440;2023-05-19T09:22:08;97639.53;;;19.04;43.47
78073;BME280;67281;48.770;11.440;2023-05-19T09:24:35;97643.13;;;19.13;42.93
78073;BME280;67281;48.770;11.440;2023-05-19T09:27:07;97643.94;;;19.14;42.67
78073;BME280;67281;48.770;11.440;2023-05-19T09:29:37;97637.94;;;19.12;42.64
78073;BME280;67281;48.770;11.440;2023-05-19T09:32:11;97647.44;;;19.14;43.33
78073;BME280;67281;48.770;11.440;2023-05-19T09:34:41;97645.69;;;19.23;42.67
78073;BME280;67281;48.770;11.440;2023-05-19T09:37:10;97643.72;;;19.25;42.31
78073;BME280;67281;48.770;11.440;2023-05-19T09:39:41;97643.44;;;19.28;42.36
78073;BME280;67281;48.770;11.440;2023-05-19T09:42:17;97644.72;;;19.24;42.79
78073;BME280;67281;48.770;11.440;2023-05-19T09:44:59;97648.34;;;19.23;42.51
78073;BME280;67281;48.770;11.440;2023-05-19T09:47:35;97631.28;;;19.25;42.78
78073;BME280;67281;48.770;11.440;2023-05-19T09:50:05;97621.34;;;19.27;43.08
78073;BME280;67281;48.770;11.440;2023-05-19T09:52:37;97629.84;;;19.31;43.10
78073;BME280;67281;48.770;11.440;2023-05-19T09:55:09;97617.84;;;19.27;42.74
78073;BME280;67281;48.770;11.440;2023-05-19T09:57:43;97621.50;;;19.26;42.65
78073;BME280;67281;48.770;11.440;2023-05-19T10:00:11;97618.69;;;19.27;42.53
78073;BME280;67281;48.770;11.440;2023-05-19T10:02:45;97627.47;;;19.28;43.02
78073;BME280;67281;48.770;11.440;2023-05-19T10:05:14;97619.84;;;19.33;43.02
78073;BME280;67281;48.770;11.440;2023-05-19T10:07:54;97619.03;;;19.32;43.13
78073;BME280;67281;48.770;11.440;2023-05-19T10:10:21;97622.53;;;19.33;42.45
78073;BME280;67281;48.770;11.440;2023-05-19T10:12:54;97612.88;;;19.32;42.90
78073;BME280;67281;48.770;11.440;2023-05-19T10:15:27;97615.22;;;19.35;42.77
78073;BME280;67281;48.770;11.440;2023-05-19T10:18:02;97611.72;;;19.34;42.93
78073;BME280;67281;48.770;11.440;2023-05-19T10:20:30;97603.09;;;19.32;42.63
78073;BME280;67281;48.770;11.440;2023-05-19T10:22:57;97601.25;;;19.33;42.86
78073;BME280;67281;48.770;11.440;2023-05-19T10:25:24;97604.28;;;19.38;43.10
78073;BME280;67281;48.770;11.440;2023-05-19T10:28:00;97599.66;;;19.40;43.35
78073;BME280;67281;48.770;11.440;2023-05-19T10:30:35;97595.84;;;19.43;42.46
78073;BME280;67281;48.770;11.440;2023-05-19T10:33:03;97594.03;;;19.43;42.62
78073;BME280;67281;48.770;11.440;2023-05-19T10:38:52;97595.09;;;19.50;42.47
78073;BME280;67281;48.770;11.440;2023-05-19T10:41:44;97588.19;;;19.57;42.31
78073;BME280;67281;48.770;11.440;2023-05-19T10:46:49;97587.78;;;19.70;41.99
78073;BME280;67281;48.770;11.440;2023-05-19T10:49:22;97588.16;;;19.75;42.33
78073;BME280;67281;48.770;11.440;2023-05-19T10:51:51;97587.00;;;19.78;42.05
78073;BME280;67281;48.770;11.440;2023-05-19T10:54:38;97582.38;;;19.80;42.42
78073;BME280;67281;48.770;11.440;2023-05-19T10:57:13;97590.19;;;19.81;42.14
78073;BME280;67281;48.770;11.440;2023-05-19T10:59:46;97585.88;;;19.80;41.82
78073;BME280;67281;48.770;11.440;2023-05-19T11:02:40;97588.06;;;19.85;42.39
78073;BME280;67281;48.770;11.440;2023-05-19T11:05:10;97574.06;;;19.83;41.86
78073;BME280;67281;48.770;11.440;2023-05-19T11:07:40;97581.53;;;19.79;42.07
78073;BME280;67281;48.770;11.440;2023-05-19T11:10:08;97583.16;;;19.72;42.67
78073;BME280;67281;48.770;11.440;2023-05-19T11:12:41;97587.63;;;19.72;42.11
78073;BME280;67281;48.770;11.440;2023-05-19T11:15:15;97579.50;;;19.73;42.29
78073;BME280;67281;48.770;11.440;2023-05-19T11:17:47;97579.66;;;19.72;42.78
78073;BME280;67281;48.770;11.440;2023-05-19T11:20:26;97582.00;;;19.75;42.01
78073;BME280;67281;48.770;11.440;2023-05-19T11:23:07;97574.69;;;19.77;42.02
78073;BME280;67281;48.770;11.440;2023-05-19T11:28:22;97576.69;;;19.75;42.38
78073;BME280;67281;48.770;11.440;2023-05-19T11:30:57;97571.06;;;19.78;41.91
78073;BME280;67281;48.770;11.440;2023-05-19T11:33:27;97574.38;;;19.80;42.53
78073;BME280;67281;48.770;11.440;2023-05-19T11:35:56;97565.25;;;19.82;42.11
78073;BME280;67281;48.770;11.440;2023-05-19T11:38:25;97561.47;;;19.85;42.09
78073;BME280;67281;48.770;11.440;2023-05-19T11:40:52;97569.47;;;19.93;42.12
78073;BME280;67281;48.770;11.440;2023-05-19T11:43:24;97565.53;;;19.97;42.10
78073;BME280;67281;48.770;11.440;2023-05-19T11:45:57;97565.19;;;20.00;41.78
78073;BME280;67281;48.770;11.440;2023-05-19T11:48:25;97554.91;;;20.05;42.22
78073;BME280;67281;48.770;11.440;2023-05-19T11:50:52;97560.72;;;20.09;42.28
78073;BME280;67281;48.770;11.440;2023-05-19T11:53:20;97562.91;;;20.13;41.54
78073;BME280;67281;48.770;11.440;2023-05-19T11:55:52;97559.63;;;20.19;41.88
78073;BME280;67281;48.770;11.440;2023-05-19T11:58:24;97555.63;;;20.23;41.65
78073;BME280;67281;48.770;11.440;2023-05-19T12:00:52;97550.47;;;20.22;41.76
78073;BME280;67281;48.770;11.440;2023-05-19T12:03:20;97551.50;;;20.29;41.72
78073;BME280;67281;48.770;11.440;2023-05-19T12:05:49;97556.63;;;20.22;42.11
78073;BME280;67281;48.770;11.440;2023-05-19T12:08:28;97550.63;;;20.20;41.51
78073;BME280;67281;48.770;11.440;2023-05-19T12:10:58;97546.16;;;20.21;42.28
78073;BME280;67281;48.770;11.440;2023-05-19T12:13:25;97543.00;;;20.25;41.48
78073;BME280;67281;48.770;11.440;2023-05-19T12:15:56;97542.34;;;20.23;41.73
78073;BME280;67281;48.770;11.440;2023-05-19T12:18:28;97546.34;;;20.27;41.51
78073;BME280;67281;48.770;11.440;2023-05-19T12:21:01;97542.34;;;20.23;41.80
78073;BME280;67281;48.770;11.440;2023-05-19T12:23:31;97540.88;;;20.37;41.89
78073;BME280;67281;48.770;11.440;2023-05-19T12:25:58;97541.44;;;20.41;42.07
78073;BME280;67281;48.770;11.440;2023-05-19T12:28:29;97538.38;;;20.35;41.97
78073;BME280;67281;48.770;11.440;2023-05-19T12:30:58;97537.56;;;20.35;41.54
78073;BME280;67281;48.770;11.440;2023-05-19T12:33:27;97536.72;;;20.34;41.82
78073;BME280;67281;48.770;11.440;2023-05-19T12:35:54;97544.88;;;20.33;41.56
78073;BME280;67281;48.770;11.440;2023-05-19T12:38:21;97528.41;;;20.38;42.37
78073;BME280;67281;48.770;11.440;2023-05-19T12:40:49;97532.97;;;20.45;41.71
78073;BME280;67281;48.770;11.440;2023-05-19T12:43:21;97535.13;;;20.42;42.03
78073;BME280;67281;48.770;11.440;2023-05-19T12:45:50;97529.78;;;20.42;41.58
78073;BME280;67281;48.770;11.440;2023-05-19T12:48:20;97533.13;;;20.44;42.21
78073;BME280;67281;48.770;11.440;2023-05-19T12:50:51;97528.47;;;20.46;41.64
78073;BME280;67281;48.770;11.440;2023-05-19T12:53:24;97516.16;;;20.45;41.90
78073;BME280;67281;48.770;11.440;2023-05-19T12:55:54;97522.63;;;20.42;41.44
78073;BME280;67281;48.770;11.440;2023-05-19T12:58:22;97528.13;;;20.41;41.61
78073;BME280;67281;48.770;11.440;2023-05-19T13:00:57;97519.16;;;20.50;41.88
78073;BME280;67281;48.770;11.440;2023-05-19T13:03:27;97520.00;;;20.50;42.06
78073;BME280;67281;48.770;11.440;2023-05-19T13:05:54;97518.66;;;20.46;41.88
78073;BME280;67281;48.770;11.440;2023-05-19T13:08:21;97520.16;;;20.49;41.81
78073;BME280;67281;48.770;11.440;2023-05-19T13:10:53;97515.16;;;20.46;41.93
78073;BME280;67281;48.770;11.440;2023-05-19T13:13:23;97515.47;;;20.43;41.71
78073;BME280;67281;48.770;11.440;2023-05-19T13:15:50;97517.75;;;20.38;42.29
78073;BME280;67281;48.770;11.440;2023-05-19T13:18:17;97521.59;;;20.35;41.98
78073;BME280;67281;48.770;11.440;2023-05-19T13:20:45;97516.25;;;20.35;41.97
78073;BME280;67281;48.770;11.440;2023-05-19T13:23:17;97508.13;;;20.37;42.52
78073;BME280;67281;48.770;11.440;2023-05-19T13:25:45;97505.31;;;20.38;42.32
78073;BME280;67281;48.770;11.440;2023-05-19T13:28:12;97502.16;;;20.43;42.40
78073;BME280;67281;48.770;11.440;2023-05-19T13:30:41;97500.50;;;20.42;41.96